Time;durP1;ratioP1;P1;durP2;ratioP2;P2;SDS_P1;SDS_P2;PMS_P1;PMS_P2;Temp;Humidity;BMP_temperature;BMP_pressure;BME280_temperature;BME280_humidity;BME280_pressure;Samples;Min_cycle;Max_cycle;Signal;HPM_P1;HPM_P2
2023/12/13 00:01:23;;;;;;;;;;;;;;;;;;5054776;28;19963;-95
2023/12/13 00:03:50;;;;;;;;;;;;;;;;;;5054474;28;20379;-95
2023/12/13 00:06:16;;;;;;;;;;;;;;;;;;5054260;28;19924;-96
2023/12/13 00:08:42;;;;;;;;;;;;;;;;;;5055624;28;19924;-96
2023/12/13 00:11:07;;;;;;;;;;;;;;;;;;5058193;28;19970;-95
2023/12/13 00:13:33;;;;;;;;;;;;;;;;;;5057250;28;19920;-96
2023/12/13 00:15:59;;;;;;;;;;;;;;;;;;5049261;28;19943;-96
2023/12/13 00:18:25;;;;;;;;;;;;;;;;;;5047030;28;19921;-96
2023/12/13 00:20:52;;;;;;;;;;;;;;;;;;5057643;28;20334;-96
2023/12/13 00:23:18;;;;;;;;;;;;;;;;;;5058098;28;19944;-96
2023/12/13 00:25:44;;;;;;;;;;;;;;;;;;5054110;28;19921;-96
2023/12/13 00:28:10;;;;;;;;;;;;;;;;;;5054546;28;19932;-96
2023/12/13 00:30:36;;;;;;;;;;;;;;;;;;5057491;28;19924;-95
2023/12/13 00:33:02;;;;;;;;;;;;;;;;;;5054630;28;19921;-96
2023/12/13 00:35:27;;;;;;;;;;;;;;;;;;5051824;28;19930;-96
2023/12/13 00:37:54;;;;;;;;;;;;;;;;;;5053153;28;20581;-95
2023/12/13 00:40:22;;;;;;;;;;;;;;;;;;5057228;28;20007;-95
2023/12/13 00:42:48;;;;;;;;;;;;;;;;;;5056926;28;19970;-95
2023/12/13 00:45:14;;;;;;;;;;;;;;;;;;5057892;28;20434;-95
2023/12/13 00:47:40;;;;;;;;;;;;;;;;;;5052660;28;19927;-95
2023/12/13 00:50:06;;;;;;;;;;;;;;;;;;5054667;28;19920;-95
2023/12/13 00:52:32;;;;;;;;;;;;;;;;;;5060473;28;19970;-95
2023/12/13 00:55:00;;;;;;;;;;;;;;;;;;5054505;28;19930;-95
2023/12/13 00:57:27;;;;;;;;;;;;;;;;;;5053053;28;19924;-95
2023/12/13 00:59:52;;;;;;;;;;;;;;;;;;5057110;28;19931;-94
2023/12/13 01:02:18;;;;;;;;;;;;;;;;;;5056558;28;19928;-95
2023/12/13 01:04:44;;;;;;;;;;;;;;;;;;5056579;28;20343;-94
2023/12/13 01:07:10;;;;;;;;;;;;;;;;;;5056419;28;20334;-94
2023/12/13 01:09:36;;;;;;;;;;;;;;;;;;5046254;28;19971;-92
2023/12/13 01:12:02;;;;;;;;;;;;;;;;;;5056738;28;19980;-93
2023/12/13 01:14:28;;;;;;;;;;;;;;;;;;5056746;28;20345;-94
2023/12/13 01:16:54;;;;;;;;;;;;;;;;;;5054177;28;19925;-93
2023/12/13 01:19:20;;;;;;;;;;;;;;;;;;5069529;28;19925;-91
2023/12/13 01:21:47;;;;;;;;;;;;;;;;;;5051893;28;20205;-93
2023/12/13 01:24:13;;;;;;;;;;;;;;;;;;5056565;28;19920;-93
2023/12/13 01:26:39;;;;;;;;;;;;;;;;;;5055078;28;19929;-94
2023/12/13 01:29:05;;;;;;;;;;;;;;;;;;5057348;28;19925;-92
2023/12/13 01:31:31;;;;;;;;;;;;;;;;;;5047804;28;19931;-95
2023/12/13 01:33:57;;;;;;;;;;;;;;;;;;5053783;28;19932;-96
2023/12/13 01:36:23;;;;;;;;;;;;;;;;;;5048610;28;20342;-94
2023/12/13 01:38:49;;;;;;;;;;;;;;;;;;5052881;28;19924;-95
2023/12/13 01:41:18;;;;;;;;;;;;;;;;;;5050401;28;20051;-95
2023/12/13 01:43:44;;;;;;;;;;;;;;;;;;5040971;28;20392;-94
2023/12/13 01:46:10;;;;;;;;;;;;;;;;;;5019521;28;19932;-95
2023/12/13 01:48:36;;;;;;;;;;;;;;;;;;5031085;28;20457;-94
2023/12/13 01:51:02;;;;;;;;;;;;;;;;;;5023544;28;19975;-94
2023/12/13 01:53:28;;;;;;;;;;;;;;;;;;5012377;28;19925;-95
2023/12/13 01:55:54;;;;;;;;;;;;;;;;;;5034176;28;19925;-96
2023/12/13 01:58:20;;;;;;;;;;;;;;;;;;5036355;28;19921;-95
2023/12/13 02:00:46;;;;;;;;;;;;;;;;;;5038018;28;19921;-95
2023/12/13 02:03:12;;;;;;;;;;;;;;;;;;5025993;28;20015;-95
2023/12/13 02:05:39;;;;;;;;;;;;;;;;;;5037304;28;19939;-95
2023/12/13 02:08:05;;;;;;;;;;;;;;;;;;5017806;28;19971;-94
2023/12/13 02:10:31;;;;;;;;;;;;;;;;;;5040525;28;20007;-94
2023/12/13 02:12:57;;;;;;;;;;;;;;;;;;5027513;28;19921;-95
2023/12/13 02:15:23;;;;;;;;;;;;;;;;;;5035112;28;19935;-94
2023/12/13 02:17:49;;;;;;;;;;;;;;;;;;5035595;28;19925;-95
2023/12/13 02:20:14;;;;;;;;;;;;;;;;;;5018299;28;19996;-94
2023/12/13 02:22:40;;;;;;;;;;;;;;;;;;5034365;28;20241;-93
2023/12/13 02:25:06;;;;;;;;;;;;;;;;;;5032129;28;19925;-95
2023/12/13 02:27:32;;;;;;;;;;;;;;;;;;5035278;28;19927;-94
2023/12/13 02:29:58;;;;;;;;;;;;;;;;;;5017617;28;19963;-95
2023/12/13 02:32:24;;;;;;;;;;;;;;;;;;5019271;28;19967;-95
2023/12/13 02:34:50;;;;;;;;;;;;;;;;;;5017756;28;20158;-94
2023/12/13 02:37:16;;;;;;;;;;;;;;;;;;5018496;28;19921;-94
2023/12/13 02:39:42;;;;;;;;;;;;;;;;;;5027647;28;19977;-94
2023/12/13 02:42:08;;;;;;;;;;;;;;;;;;5025697;28;19999;-94
2023/12/13 02:44:34;;;;;;;;;;;;;;;;;;5052769;28;19931;-94
2023/12/13 02:47:01;;;;;;;;;;;;;;;;;;5055254;28;19924;-94
2023/12/13 02:49:27;;;;;;;;;;;;;;;;;;5054147;28;19921;-94
2023/12/13 02:51:53;;;;;;;;;;;;;;;;;;5049042;28;19924;-94
2023/12/13 02:54:19;;;;;;;;;;;;;;;;;;5054119;28;19925;-94
2023/12/13 02:56:45;;;;;;;;;;;;;;;;;;5055765;28;19927;-94
2023/12/13 02:59:11;;;;;;;;;;;;;;;;;;5054057;28;19929;-94
2023/12/13 03:01:37;;;;;;;;;;;;;;;;;;5053936;28;19924;-95
2023/12/13 03:04:03;;;;;;;;;;;;;;;;;;5056165;28;20299;-94
2023/12/13 03:06:28;;;;;;;;;;;;;;;;;;5049679;28;19983;-95
2023/12/13 03:08:54;;;;;;;;;;;;;;;;;;5050608;28;20027;-95
2023/12/13 03:11:21;;;;;;;;;;;;;;;;;;5048277;28;19921;-94
2023/12/13 03:13:47;;;;;;;;;;;;;;;;;;5068723;28;19920;-95
2023/12/13 03:16:13;;;;;;;;;;;;;;;;;;5054499;28;20295;-95
2023/12/13 03:18:39;;;;;;;;;;;;;;;;;;5051541;28;19951;-94
2023/12/13 03:21:05;;;;;;;;;;;;;;;;;;5054165;28;19928;-95
2023/12/13 03:23:31;;;;;;;;;;;;;;;;;;5050269;28;20371;-94
2023/12/13 03:25:57;;;;;;;;;;;;;;;;;;5052429;28;20031;-95
2023/12/13 03:28:23;;;;;;;;;;;;;;;;;;5050537;28;19932;-95
2023/12/13 03:30:49;;;;;;;;;;;;;;;;;;5054551;28;19928;-95
2023/12/13 03:33:15;;;;;;;;;;;;;;;;;;5053697;28;19920;-95
2023/12/13 03:35:41;;;;;;;;;;;;;;;;;;5053286;28;20287;-95
2023/12/13 03:38:06;;;;;;;;;;;;;;;;;;5058565;28;19921;-95
2023/12/13 03:40:32;;;;;;;;;;;;;;;;;;5059076;28;20023;-95
2023/12/13 03:42:59;;;;;;;;;;;;;;;;;;5058865;28;19950;-95
2023/12/13 03:45:26;;;;;;;;;;;;;;;;;;5058901;28;19924;-95
2023/12/13 03:47:52;;;;;;;;;;;7.50;99.90;;;;;;5058547;28;19921;-95
2023/12/13 03:50:17;;;;;;;;;;;7.40;99.90;;;;;;5058119;28;19921;-96
2023/12/13 03:52:43;;;;;;;;;;;7.30;99.90;;;;;;5037902;28;19921;-94
2023/12/13 03:55:09;;;;;;;;;;;7.30;99.90;;;;;;5074871;28;20260;-95
2023/12/13 03:57:34;;;;;;;;;;;6.30;99.90;;;;;;5055162;28;20394;-95
2023/12/13 04:00:00;;;;;;;;;;;7.20;99.90;;;;;;5058246;28;19948;-95
2023/12/13 04:02:26;;;;;;;;;;;7.20;99.90;;;;;;5055783;28;20415;-95
2023/12/13 04:04:52;;;;;;;;;;;7.20;99.90;;;;;;5058179;28;19931;-96
2023/12/13 04:07:17;;;;;;;;;;;7.20;99.90;;;;;;5041649;28;19920;-95
2023/12/13 04:09:43;;;;;;;;;;;7.10;99.90;;;;;;5055328;28;19921;-95
2023/12/13 04:12:08;;;;;;;;;;;7.70;99.90;;;;;;5045784;28;19924;-95
2023/12/13 04:14:34;;;;;;;;;;;7.20;99.90;;;;;;5041445;28;19971;-94
2023/12/13 04:17:00;;;;;;;;;;;7.20;99.90;;;;;;5040720;28;20368;-94
2023/12/13 04:19:25;;;;;;;;;;;7.20;99.90;;;;;;5056534;28;19968;-94
2023/12/13 04:21:51;;;;;;;;;;;7.20;99.90;;;;;;5042874;28;19984;-95
2023/12/13 04:24:16;;;;;;;;;;;7.20;99.90;;;;;;5057070;28;19933;-95
2023/12/13 04:26:42;;;;;;;;;;;7.10;99.90;;;;;;5071276;28;19929;-95
2023/12/13 04:29:08;;;;;;;;;;;7.20;99.90;;;;;;5034190;28;19932;-94
2023/12/13 04:31:33;;;;;;;;;;;7.20;99.90;;;;;;5040950;28;20394;-95
2023/12/13 04:33:59;;;;;;;;;;;7.90;99.90;;;;;;5038327;28;19921;-95
2023/12/13 04:36:25;;;;;;;;;;;7.20;99.90;;;;;;5070525;28;19924;-93
2023/12/13 04:38:50;;;;;;;;;;;7.20;99.90;;;;;;5057080;28;19921;-95
2023/12/13 04:41:16;;;;;;;;;;;7.20;99.90;;;;;;5053087;28;19926;-94
2023/12/13 04:43:41;;;;;;;;;;;7.20;99.90;;;;;;5040830;28;19929;-94
2023/12/13 04:46:08;;;;;;;;;;;7.20;99.90;;;;;;5035141;28;20394;-94
2023/12/13 04:48:34;;;;;;;;;;;7.20;99.90;;;;;;5054318;28;20016;-95
2023/12/13 04:50:59;;;;;;;;;;;7.20;99.90;;;;;;5045857;28;19956;-93
2023/12/13 04:53:25;;;;;;;;;;;7.90;99.90;;;;;;5054231;28;19924;-94
2023/12/13 04:55:50;;;;;;;;;;;7.10;99.90;;;;;;5037371;28;19920;-96
2023/12/13 04:58:16;;;;;;;;;;;7.10;99.90;;;;;;5050229;28;19920;-96
2023/12/13 05:00:42;;;;;;;;;;;7.10;99.90;;;;;;5051341;28;19921;-94
2023/12/13 05:03:07;;;;;;;;;;;7.20;99.90;;;;;;5033399;28;19985;-94
2023/12/13 05:05:33;;;;;;;;;;;7.20;99.90;;;;;;5055549;28;19924;-94
2023/12/13 05:07:58;;;;;;;;;;;7.20;99.90;;;;;;5040441;28;20017;-94
2023/12/13 05:10:24;;;;;;;;;;;7.20;99.90;;;;;;5036950;28;19928;-95
2023/12/13 05:12:50;;;;;;;;;;;7.80;99.90;;;;;;5057153;28;19928;-94
2023/12/13 05:15:15;;;;;;;;;;;7.10;99.90;;;;;;5054901;28;19973;-95
2023/12/13 05:17:41;;;;;;;;;;;7.20;99.90;;;;;;5056954;28;19928;-95
2023/12/13 05:20:08;;;;;;;;;;;7.20;99.90;;;;;;5056661;28;19920;-94
2023/12/13 05:22:34;;;;;;;;;;;7.20;99.90;;;;;;5050397;28;20374;-94
2023/12/13 05:24:59;;;;;;;;;;;7.20;99.90;;;;;;5040393;28;19924;-94
2023/12/13 05:27:25;;;;;;;;;;;7.20;99.90;;;;;;5039333;28;19920;-94
2023/12/13 05:29:50;;;;;;;;;;;6.20;99.90;;;;;;5040336;28;19943;-94
2023/12/13 05:32:16;;;;;;;;;;;6.60;99.90;;;;;;5053159;28;20506;-94
2023/12/13 05:34:42;;;;;;;;;;;7.20;99.90;;;;;;5056312;28;19920;-95
2023/12/13 05:37:07;;;;;;;;;;;7.20;99.90;;;;;;5040085;28;20462;-94
2023/12/13 05:39:33;;;;;;;;;;;7.50;99.90;;;;;;5035133;28;19929;-94
2023/12/13 05:41:59;;;;;;;;;;;7.20;99.90;;;;;;5039403;28;19960;-93
2023/12/13 05:44:24;;;;;;;;;;;7.40;99.90;;;;;;5052612;28;19924;-93
2023/12/13 05:46:50;;;;;;;;;;;7.20;99.90;;;;;;5035156;28;19924;-93
2023/12/13 05:49:16;;;;;;;;;;;7.20;99.90;;;;;;5049835;28;19920;-94
2023/12/13 05:51:41;;;;;;;;;;;7.20;99.90;;;;;;5056129;28;20015;-93
2023/12/13 05:54:07;;;;;;;;;;;7.20;99.90;;;;;;5038575;28;20321;-93
2023/12/13 05:56:33;;;;;;;;;;;7.20;99.90;;;;;;5037489;28;20269;-93
2023/12/13 05:58:58;;;;;;;;;;;7.20;99.90;;;;;;5039473;28;19929;-93
2023/12/13 06:01:24;;;;;;;;;;;7.30;99.90;;;;;;5053918;28;19928;-92
2023/12/13 06:03:50;;;;;;;;;;;7.20;99.90;;;;;;5055706;28;20287;-94
2023/12/13 06:06:15;;;;;;;;;;;7.20;99.90;;;;;;5050934;28;19987;-94
2023/12/13 06:08:41;;;;;;;;;;;7.10;99.90;;;;;;5039295;28;19956;-94
2023/12/13 06:11:07;;;;;;;;;;;7.20;99.90;;;;;;5056128;28;19956;-92
2023/12/13 06:13:33;;;;;;;;;;;7.10;99.90;;;;;;5054394;28;19930;-92
2023/12/13 06:15:58;;;;;;;;;;;7.10;99.90;;;;;;5053085;28;19925;-93
2023/12/13 06:18:24;;;;;;;;;;;7.20;99.90;;;;;;5060302;28;20980;-93
2023/12/13 06:20:51;;;;;;;;;;;7.10;99.90;;;;;;5047831;28;19924;-93
2023/12/13 06:23:16;;;;;;;;;;;7.20;99.90;;;;;;5054415;28;20367;-93
2023/12/13 06:25:42;;;;;;;;;;;7.10;99.90;;;;;;5039067;28;19925;-93
2023/12/13 06:28:08;;;;;;;;;;;7.10;99.90;;;;;;5050166;28;20023;-94
2023/12/13 06:30:34;;;;;;;;;;;7.10;99.90;;;;;;5033905;28;20368;-91
2023/12/13 06:32:59;;;;;;;;;;;7.10;99.90;;;;;;5049862;28;19924;-94
2023/12/13 06:35:25;;;;;;;;;;;7.10;99.90;;;;;;5056277;28;19920;-92
2023/12/13 06:37:50;;;;;;;;;;;7.10;99.90;;;;;;5028965;28;19975;-93
2023/12/13 06:40:18;;;;;;;;;;;7.10;99.90;;;;;;5031998;28;20371;-94
2023/12/13 06:42:43;;;;;;;;;;;7.10;99.90;;;;;;5071356;28;19924;-93
2023/12/13 06:45:09;;;;;;;;;;;7.10;99.90;;;;;;5038451;28;20015;-93
2023/12/13 06:47:35;;;;;;;;;;;7.10;99.90;;;;;;5050572;28;21537;-92
2023/12/13 06:50:00;;;;;;;;;;;7.10;99.90;;;;;;5033405;28;20487;-95
2023/12/13 06:52:26;;;;;;;;;;;7.10;99.90;;;;;;5041640;28;19964;-95
2023/12/13 06:54:52;;;;;;;;;;;7.10;99.90;;;;;;5027605;28;20003;-96
2023/12/13 06:57:17;;;;;;;;;;;7.10;99.90;;;;;;5051044;28;19920;-90
2023/12/13 06:59:43;;;;;;;;;;;7.10;99.90;;;;;;5052729;28;20541;-92
2023/12/13 07:02:08;;;;;;;;;;;7.10;99.90;;;;;;5065738;28;19964;-92
2023/12/13 07:04:35;;;;;;;;;;;7.10;99.90;;;;;;5049941;28;20270;-90
2023/12/13 07:07:01;;;;;;;;;;;7.10;99.90;;;;;;5031201;28;19986;-91
2023/12/13 07:09:26;;;;;;;;;;;8.00;99.90;;;;;;5034815;28;20454;-89
2023/12/13 07:11:52;;;;;;;;;;;7.10;99.90;;;;;;5064776;28;19920;-90
2023/12/13 07:14:18;;;;;;;;;;;7.10;99.90;;;;;;5034001;28;20300;-90
2023/12/13 07:16:43;;;;;;;;;;;7.10;99.90;;;;;;5043600;28;19921;-89
2023/12/13 07:19:09;;;;;;;;;;;7.10;99.90;;;;;;5069804;28;19995;-90
2023/12/13 07:21:35;;;;;;;;;;;7.10;99.90;;;;;;5053270;28;19956;-90
2023/12/13 07:24:00;;;;;;;;;;;7.10;99.90;;;;;;5036980;28;20279;-90
2023/12/13 07:26:26;;;;;;;;;;;7.10;99.90;;;;;;5054435;28;19924;-90
2023/12/13 07:28:52;;;;;;;;;;;7.10;99.90;;;;;;5054606;28;20454;-90
2023/12/13 07:31:18;;;;;;;;;;;7.10;99.90;;;;;;5036574;28;19924;-90
2023/12/13 07:33:44;;;;;;;;;;;7.10;99.90;;;;;;5038784;28;19924;-89
2023/12/13 07:36:11;;;;;;;;;;;7.20;99.90;;;;;;5055065;28;19928;-90
2023/12/13 07:38:41;;;;;;;;;;;7.10;99.90;;;;;;5038563;28;19920;-89
2023/12/13 07:41:09;;;;;;;;;;;7.10;99.90;;;;;;5038805;28;19924;-90
2023/12/13 07:43:35;;;;;;;;;;;7.10;99.90;;;;;;5034144;28;19936;-90
2023/12/13 07:46:01;;;;;;;;;;;7.10;99.90;;;;;;5052569;28;19936;-90
2023/12/13 07:48:26;;;;;;;;;;;7.10;99.90;;;;;;5038384;28;20391;-90
2023/12/13 07:50:53;;;;;;;;;;;7.10;99.90;;;;;;5054158;28;19921;-90
2023/12/13 07:53:18;;;;;;;;;;;7.10;99.90;;;;;;5038469;28;20270;-96
2023/12/13 07:55:44;;;;;;;;;;;7.10;99.90;;;;;;5051934;28;19920;-96
2023/12/13 07:58:10;;;;;;;;;;;6.50;99.90;;;;;;5036528;28;19921;-96
2023/12/13 08:00:35;;;;;;;;;;;7.20;99.90;;;;;;5066265;28;19932;-94
2023/12/13 08:03:01;;;;;;;;;;;7.20;99.90;;;;;;5031714;28;20394;-96
2023/12/13 08:05:27;;;;;;;;;;;7.10;99.90;;;;;;5036726;28;19924;-96
2023/12/13 08:07:53;;;;;;;;;;;7.30;99.90;;;;;;5038392;28;19924;-96
2023/12/13 08:10:18;;;;;;;;;;;7.20;99.90;;;;;;5044377;28;19924;-96
2023/12/13 08:12:44;;;;;;;;;;;7.20;99.90;;;;;;5028661;28;19925;-96
2023/12/13 08:15:10;;;;;;;;;;;7.10;99.90;;;;;;5051900;28;19925;-89
2023/12/13 08:17:36;;;;;;;;;;;6.10;99.90;;;;;;5035345;28;19989;-88
2023/12/13 08:20:02;;;;;;;;;;;7.20;99.90;;;;;;5032893;28;19921;-88
2023/12/13 08:22:27;;;;;;;;;;;7.20;99.90;;;;;;5037253;28;19924;-88
2023/12/13 08:24:53;;;;;;;;;;;7.60;99.90;;;;;;5039912;28;19988;-87
2023/12/13 08:27:19;;;;;;;;;;;7.20;99.90;;;;;;5056731;28;19967;-87
2023/12/13 08:29:45;;;;;;;;;;;7.20;99.90;;;;;;5038158;28;19964;-88
2023/12/13 08:32:10;;;;;;;;;;;7.20;99.90;;;;;;5039227;28;20370;-89
2023/12/13 08:34:36;;;;;;;;;;;7.20;99.90;;;;;;5039503;28;19972;-87
2023/12/13 08:37:02;;;;;;;;;;;7.20;99.90;;;;;;5040007;28;20244;-90
2023/12/13 08:39:28;;;;;;;;;;;6.50;99.90;;;;;;5037136;28;20015;-90
2023/12/13 08:41:53;;;;;;;;;;;7.30;99.90;;;;;;5058216;28;20025;-89
2023/12/13 08:44:19;;;;;;;;;;;7.30;99.90;;;;;;5055092;28;19925;-90
2023/12/13 08:46:48;;;;;;;;;;;7.20;99.90;;;;;;5040195;28;19928;-90
2023/12/13 08:49:13;;;;;;;;;;;6.90;99.90;;;;;;5056797;28;19920;-89
2023/12/13 08:51:39;;;;;;;;;;;7.30;99.90;;;;;;5033560;28;19924;-91
2023/12/13 08:54:04;;;;;;;;;;;7.30;99.90;;;;;;5056480;28;19930;-90
2023/12/13 08:56:31;;;;;;;;;;;7.30;99.90;;;;;;5046754;28;19921;-90
2023/12/13 08:58:56;;;;;;;;;;;7.40;99.90;;;;;;5040061;28;19920;-89
2023/12/13 09:01:23;;;;;;;;;;;7.30;99.90;;;;;;5072480;28;20424;-89
2023/12/13 09:03:50;;;;;;;;;;;7.20;99.90;;;;;;5056538;28;19931;-89
2023/12/13 09:06:16;;;;;;;;;;;7.40;99.90;;;;;;5067563;28;19925;-91
2023/12/13 09:08:41;;;;;;;;;;;7.20;99.90;;;;;;5037228;28;19967;-90
2023/12/13 09:11:07;;;;;;;;;;;7.40;99.90;;;;;;5042426;28;19920;-90
2023/12/13 09:13:32;;;;;;;;;;;7.40;99.90;;;;;;5051481;28;20287;-88
2023/12/13 09:15:58;;;;;;;;;;;7.50;99.90;;;;;;5030497;28;19978;-89
2023/12/13 09:18:24;;;;;;;;;;;7.90;99.90;;;;;;5047049;28;19921;-89
2023/12/13 09:20:49;;;;;;;;;;;7.40;99.90;;;;;;5055723;28;20382;-89
2023/12/13 09:23:22;;;;;;;;;;;7.50;99.90;;;;;;5047890;28;20007;-88
2023/12/13 09:25:47;;;;;;;;;;;7.50;99.90;;;;;;5030536;28;19932;-89
2023/12/13 09:28:13;;;;;;;;;;;7.50;99.90;;;;;;5039421;28;19921;-89
2023/12/13 09:30:38;;;;;;;;;;;7.50;99.90;;;;;;5031542;28;19924;-89
2023/12/13 09:33:04;;;;;;;;;;;7.60;99.90;;;;;;5055070;28;19927;-89
2023/12/13 09:35:29;;;;;;;;;;;7.60;99.90;;;;;;5048342;28;19928;-89
2023/12/13 09:37:55;;;;;;;;;;;7.60;99.90;;;;;;5038642;28;19963;-87
2023/12/13 09:40:21;;;;;;;;;;;7.60;99.90;;;;;;5031521;28;19920;-87
2023/12/13 09:42:47;;;;;;;;;;;7.70;99.90;;;;;;5034272;28;19967;-88
2023/12/13 09:45:22;;;;;;;;;;;7.70;99.90;;;;;;5038002;28;19924;-89
2023/12/13 09:47:51;;;;;;;;;;;7.60;99.90;;;;;;5049671;28;19970;-88
2023/12/13 09:50:18;;;;;;;;;;;7.80;99.90;;;;;;5071362;28;19921;-88
2023/12/13 09:52:43;;;;;;;;;;;7.80;99.90;;;;;;5037794;28;19982;-89
2023/12/13 09:55:10;;;;;;;;;;;7.80;99.90;;;;;;5055630;28;19926;-88
2023/12/13 09:57:36;;;;;;;;;;;7.90;99.90;;;;;;5049536;28;19973;-88
2023/12/13 10:00:02;;;;;;;;;;;7.80;99.90;;;;;;5071760;28;19920;-90
2023/12/13 10:02:27;;;;;;;;;;;7.90;99.90;;;;;;5071713;28;19921;-88
2023/12/13 10:04:53;;;;;;;;;;;7.90;99.90;;;;;;5036630;28;20394;-88
2023/12/13 10:07:19;;;;;;;;;;;8.00;99.90;;;;;;5054727;28;20328;-88
2023/12/13 10:09:45;;;;;;;;;;;8.10;99.90;;;;;;5038752;28;19924;-87
2023/12/13 10:12:12;;;;;;;;;;;8.10;99.90;;;;;;5038307;28;19960;-89
2023/12/13 10:14:38;;;;;;;;;;;8.10;99.90;;;;;;5047514;28;20014;-90
2023/12/13 10:17:04;;;;;;;;;;;7.00;99.90;;;;;;5069755;28;20434;-90
2023/12/13 10:19:30;;;;;;;;;;;8.20;99.90;;;;;;5071299;28;19968;-89
2023/12/13 10:21:56;;;;;;;;;;;8.20;99.90;;;;;;5055692;28;20397;-92
2023/12/13 10:24:23;;;;;;;;;;;8.20;99.90;;;;;;5038555;28;20023;-93
2023/12/13 10:26:50;;;;;;;;;;;8.30;99.90;;;;;;5039656;28;19924;-94
2023/12/13 10:29:16;;;;;;;;;;;8.20;99.90;;;;;;5055132;28;19920;-93
2023/12/13 10:31:44;;;;;;;;;;;8.20;99.90;;;;;;5056540;28;20372;-93
2023/12/13 10:34:10;;;;;;;;;;;8.20;99.90;;;;;;5055315;28;20531;-93
2023/12/13 10:36:35;;;;;;;;;;;8.30;99.90;;;;;;5039053;28;19969;-92
2023/12/13 10:39:02;;;;;;;;;;;8.30;99.90;;;;;;5052099;28;19947;-91
2023/12/13 10:41:28;;;;;;;;;;;8.30;99.90;;;;;;5055444;28;19921;-91
2023/12/13 10:43:54;;;;;;;;;;;8.30;99.90;;;;;;5054953;28;19928;-92
2023/12/13 10:46:21;;;;;;;;;;;8.30;99.90;;;;;;5067909;28;19924;-92
2023/12/13 10:48:47;;;;;;;;;;;8.30;99.90;;;;;;5067140;28;19921;-91
2023/12/13 10:51:14;;;;;;;;;;;8.30;99.90;;;;;;5038443;28;19920;-92
2023/12/13 10:53:41;;;;;;;;;;;8.20;99.90;;;;;;5069708;28;19920;-91
2023/12/13 10:56:07;;;;;;;;;;;8.30;99.90;;;;;;5052575;28;19950;-92
2023/12/13 10:58:34;;;;;;;;;;;8.00;99.90;;;;;;5050752;28;19921;-92
2023/12/13 11:01:01;;;;;;;;;;;8.30;99.90;;;;;;5051179;28;19999;-91
2023/12/13 11:03:45;;;;;;;;;;;8.20;99.90;;;;;;5048253;28;19921;-91
2023/12/13 11:06:12;;;;;;;;;;;8.20;99.90;;;;;;5049916;28;19972;-92
2023/12/13 11:08:38;;;;;;;;;;;8.20;99.90;;;;;;5054517;28;20003;-92
2023/12/13 11:11:05;;;;;;;;;;;8.30;99.90;;;;;;5054295;28;19924;-92
2023/12/13 11:13:30;;;;;;;;;;;8.20;99.90;;;;;;5038053;28;19920;-92
2023/12/13 11:15:58;;;;;;;;;;;8.10;99.90;;;;;;5054544;28;19920;-92
2023/12/13 11:18:24;;;;;;;;;;;8.00;99.90;;;;;;5051348;28;19920;-92
2023/12/13 11:20:55;;;;;;;;;;;8.10;99.90;;;;;;5054367;28;19927;-91
2023/12/13 11:23:27;;;;;;;;;;;8.20;99.90;;;;;;5065917;28;19981;-92
2023/12/13 11:25:55;;;;;;;;;;;8.20;99.90;;;;;;5048521;28;20502;-91
2023/12/13 11:28:22;;;;;;;;;;;8.00;99.90;;;;;;5036918;28;19954;-91
2023/12/13 11:30:48;;;;;;;;;;;7.60;99.90;;;;;;5053685;28;20202;-92
2023/12/13 11:33:20;;;;;;;;;;;8.20;99.90;;;;;;5060613;28;19921;-91
2023/12/13 11:35:46;;;;;;;;;;;8.60;99.90;;;;;;5046815;28;20011;-92
2023/12/13 11:38:12;;;;;;;;;;;8.20;99.90;;;;;;5051764;28;20058;-91
2023/12/13 11:40:39;;;;;;;;;;;7.80;99.90;;;;;;5027025;28;19921;-91
2023/12/13 11:43:05;;;;;;;;;;;8.10;99.90;;;;;;5055101;28;20011;-93
2023/12/13 11:45:31;;;;;;;;;;;7.00;99.90;;;;;;5037875;28;20059;-93
2023/12/13 11:48:00;;;;;;;;;;;8.20;99.90;;;;;;5049428;28;19928;-93
2023/12/13 11:50:25;;;;;;;;;;;8.20;99.90;;;;;;5070179;28;19921;-92
2023/12/13 11:52:51;;;;;;;;;;;8.20;99.90;;;;;;5037695;28;20015;-93
2023/12/13 11:55:19;;;;;;;;;;;8.20;99.90;;;;;;5070632;28;19960;-92
2023/12/13 11:57:46;;;;;;;;;;;8.20;99.90;;;;;;5059100;28;19921;-93
2023/12/13 12:00:11;;;;;;;;;;;8.10;99.90;;;;;;5058928;28;20431;-93
2023/12/13 12:02:37;;;;;;;;;;;8.20;99.90;;;;;;5040959;28;19970;-93
2023/12/13 12:05:06;;;;;;;;;;;8.20;99.90;;;;;;5057920;28;19924;-92
2023/12/13 12:07:32;;;;;;;;;;;8.00;99.90;;;;;;5055018;28;19932;-93
2023/12/13 12:09:58;;;;;;;;;;;8.00;99.90;;;;;;5058831;28;19921;-93
2023/12/13 12:12:25;;;;;;;;;;;7.00;99.90;;;;;;5056989;28;19920;-94
2023/12/13 12:14:51;;;;;;;;;;;8.00;99.90;;;;;;5058306;28;19921;-93
2023/12/13 12:17:20;;;;;;;;;;;7.90;99.90;;;;;;5052127;28;19995;-94
2023/12/13 12:19:50;;;;;;;;;;;7.90;99.90;;;;;;5071278;28;19973;-93
2023/12/13 12:22:20;;;;;;;;;;;7.90;99.90;;;;;;5057209;28;19924;-93
2023/12/13 12:24:47;;;;;;;;;;;7.80;99.90;;;;;;5057355;28;20563;-93
2023/12/13 12:27:13;;;;;;;;;;;7.70;99.90;;;;;;5057090;28;19921;-93
2023/12/13 12:29:39;;;;;;;;;;;7.70;99.90;;;;;;5036629;28;19985;-92
2023/12/13 12:32:08;;;;;;;;;;;7.70;99.90;;;;;;5053036;28;20280;-89
2023/12/13 12:34:34;;;;;;;;;;;7.80;99.90;;;;;;5049602;28;19921;-90
2023/12/13 12:37:00;;;;;;;;;;;6.50;99.90;;;;;;5040049;28;19924;-88
2023/12/13 12:39:26;;;;;;;;;;;7.60;99.90;;;;;;5052537;28;19948;-88
2023/12/13 12:41:55;;;;;;;;;;;7.60;99.90;;;;;;5035049;28;20430;-89
2023/12/13 12:44:23;;;;;;;;;;;7.50;99.90;;;;;;5050388;28;19924;-89
2023/12/13 12:46:49;;;;;;;;;;;8.20;99.90;;;;;;5051583;28;19932;-89
2023/12/13 12:49:15;;;;;;;;;;;7.50;99.90;;;;;;5033898;28;20348;-87
2023/12/13 12:51:52;;;;;;;;;;;7.40;99.90;;;;;;5047057;28;19931;-87
2023/12/13 12:54:17;;;;;;;;;;;7.40;99.90;;;;;;5037379;28;19921;-88
2023/12/13 12:56:43;;;;;;;;;;;7.30;99.90;;;;;;5052221;28;19969;-89
2023/12/13 12:59:14;;;;;;;;;;;7.30;99.90;;;;;;5044866;28;19944;-89
2023/12/13 13:01:41;;;;;;;;;;;7.30;99.90;;;;;;5064939;28;19931;-89
2023/12/13 13:04:10;;;;;;;;;;;7.30;99.90;;;;;;5055261;28;19920;-88
2023/12/13 13:06:36;;;;;;;;;;;7.30;99.90;;;;;;5069737;28;19925;-89
2023/12/13 13:09:01;;;;;;;;;;;7.30;99.90;;;;;;5035430;28;20386;-88
2023/12/13 13:11:27;;;;;;;;;;;7.20;99.90;;;;;;5047020;28;20053;-88
2023/12/13 13:13:52;;;;;;;;;;;7.10;99.90;;;;;;5039389;28;19924;-88
2023/12/13 13:16:21;;;;;;;;;;;7.50;99.90;;;;;;5037774;28;19929;-89
2023/12/13 13:18:46;;;;;;;;;;;7.20;99.90;;;;;;5051007;28;19920;-88
2023/12/13 13:21:12;;;;;;;;;;;7.10;99.90;;;;;;5061745;28;20535;-87
2023/12/13 13:23:38;;;;;;;;;;;7.10;99.90;;;;;;5037124;28;20027;-88
2023/12/13 13:26:04;;;;;;;;;;;7.10;99.90;;;;;;5044415;28;19932;-88
2023/12/13 13:28:30;;;;;;;;;;;6.90;99.90;;;;;;5034621;28;19970;-86
2023/12/13 13:30:58;;;;;;;;;;;7.00;99.90;;;;;;5041952;28;19970;-88
2023/12/13 13:33:24;;;;;;;;;;;6.90;99.90;;;;;;5037004;28;19950;-88
2023/12/13 13:35:50;;;;;;;;;;;6.90;99.90;;;;;;5070319;28;20036;-86
2023/12/13 13:38:16;;;;;;;;;;;6.90;99.90;;;;;;5053634;28;19920;-88
2023/12/13 13:40:42;;;;;;;;;;;6.60;99.90;;;;;;5050308;28;19928;-88
2023/12/13 13:43:08;;;;;;;;;;;6.80;99.90;;;;;;5031555;28;19925;-88
2023/12/13 13:45:33;;;;;;;;;;;7.00;99.90;;;;;;5047937;28;19931;-92
2023/12/13 13:48:00;;;;;;;;;;;6.70;99.90;;;;;;5034364;28;20070;-92
2023/12/13 13:50:26;;;;;;;;;;;6.70;99.90;;;;;;5042077;28;19924;-93
2023/12/13 13:52:52;;;;;;;;;;;6.70;99.90;;;;;;5066636;28;19931;-88
2023/12/13 13:55:19;;;;;;;;;;;6.60;99.90;;;;;;5064962;28;20347;-87
2023/12/13 13:57:44;;;;;;;;;;;6.60;99.90;;;;;;5054526;28;19979;-89
2023/12/13 14:00:11;;;;;;;;;;;6.60;99.90;;;;;;5070983;28;19928;-90
2023/12/13 14:02:37;;;;;;;;;;;6.50;99.90;;;;;;5055123;28;20447;-87
2023/12/13 14:05:06;;;;;;;;;;;6.50;99.90;;;;;;5064808;28;19927;-93
2023/12/13 14:07:31;;;;;;;;;;;6.50;99.90;;;;;;5043926;28;19920;-96
2023/12/13 14:09:58;;;;;;;;;;;6.40;99.90;;;;;;5056057;28;19925;-96
2023/12/13 14:12:23;;;;;;;;;;;6.40;99.90;;;;;;5059702;28;19921;-96
2023/12/13 14:14:49;;;;;;;;;;;8.40;99.90;;;;;;5055438;28;19984;-96
2023/12/13 14:17:17;;;;;;;;;;;6.30;99.90;;;;;;5062857;28;19924;-96
2023/12/13 14:19:43;;;;;;;;;;;6.30;99.90;;;;;;5034542;28;19921;-96
2023/12/13 14:22:10;;;;;;;;;;;6.20;99.90;;;;;;5052151;28;19935;-96
2023/12/13 14:24:35;;;;;;;;;;;6.10;99.90;;;;;;5054883;28;20316;-96
2023/12/13 14:27:01;;;;;;;;;;;6.20;99.90;;;;;;5071640;28;20007;-96
2023/12/13 14:29:33;;;;;;;;;;;6.10;99.90;;;;;;5053632;28;19929;-96
2023/12/13 14:32:04;;;;;;;;;;;6.10;99.90;;;;;;5067892;28;19920;-96
2023/12/13 14:34:30;;;;;;;;;;;6.00;99.90;;;;;;5048267;28;20057;-91
2023/12/13 14:36:55;;;;;;;;;;;6.00;99.90;;;;;;5050170;28;19921;-91
2023/12/13 14:39:25;;;;;;;;;;;6.00;99.90;;;;;;5065008;28;20049;-93
2023/12/13 14:41:51;;;;;;;;;;;5.90;99.90;;;;;;5033289;28;19924;-92
2023/12/13 14:44:18;;;;;;;;;;;5.90;99.90;;;;;;5065670;28;19924;-93
2023/12/13 14:46:50;;;;;;;;;;;5.80;99.90;;;;;;5068080;28;19932;-93
2023/12/13 14:49:15;;;;;;;;;;;5.70;99.90;;;;;;5038337;28;19998;-92
2023/12/13 14:51:42;;;;;;;;;;;5.90;99.90;;;;;;5031782;28;20433;-91
2023/12/13 14:54:08;;;;;;;;;;;6.50;99.90;;;;;;5049968;28;19924;-91